Time;durP1;ratioP1;P1;durP2;ratioP2;P2;SDS_P1;SDS_P2;PMS_P1;PMS_P2;Temp;Humidity;BMP_temperature;BMP_pressure;BME280_temperature;BME280_humidity;BME280_pressure;Samples;Min_cycle;Max_cycle;Signal;HPM_P1;HPM_P2
2023/01/08 00:01:41;;;;;;;4.25;1.40;;;11.00;99.90;;;;;;5033233;28;20409;-74
2023/01/08 00:04:06;;;;;;;2.33;1.30;;;11.10;99.90;;;;;;5017169;28;20030;-74
2023/01/08 00:06:32;;;;;;;3.08;1.33;;;11.00;99.90;;;;;;5033691;28;20103;-74
2023/01/08 00:08:58;;;;;;;2.75;1.65;;;11.00;99.90;;;;;;5017230;28;20470;-74
2023/01/08 00:11:24;;;;;;;2.97;1.30;;;11.10;99.90;;;;;;5016579;28;20429;-74
2023/01/08 00:13:49;;;;;;;2.65;1.27;;;11.00;99.90;;;;;;5033881;28;20478;-74
2023/01/08 00:16:17;;;;;;;3.88;1.60;;;11.10;99.90;;;;;;5032961;28;20398;-74
2023/01/08 00:18:43;;;;;;;2.42;1.35;;;11.00;99.90;;;;;;5033959;28;20488;-74
2023/01/08 00:21:09;;;;;;;3.83;1.85;;;11.10;99.90;;;;;;5016478;28;20121;-74
2023/01/08 00:23:35;;;;;;;3.40;1.38;;;11.10;99.90;;;;;;5016728;28;20127;-74
2023/01/08 00:26:04;;;;;;;1.73;1.33;;;11.00;99.90;;;;;;5033945;28;20057;-74
2023/01/08 00:28:30;;;;;;;3.35;1.73;;;11.10;99.90;;;;;;5033721;28;20033;-74
2023/01/08 00:30:56;;;;;;;4.55;1.58;;;11.10;99.90;;;;;;5032736;28;20072;-74
2023/01/08 00:33:21;;;;;;;2.40;1.58;;;11.10;99.90;;;;;;5016520;28;20029;-74
2023/01/08 00:35:47;;;;;;;3.47;1.63;;;11.10;99.90;;;;;;5016377;28;20029;-74
2023/01/08 00:38:13;;;;;;;3.92;2.00;;;11.10;99.90;;;;;;5034049;28;20378;-74
2023/01/08 00:40:40;;;;;;;3.83;1.80;;;11.20;99.90;;;;;;5032719;28;20061;-74
2023/01/08 00:43:06;;;;;;;3.95;1.50;;;11.20;99.90;;;;;;5016017;28;20132;-74
2023/01/08 00:45:31;;;;;;;3.92;1.50;;;11.20;99.90;;;;;;5032494;28;20038;-74
2023/01/08 00:47:58;;;;;;;2.65;1.23;;;11.10;99.90;;;;;;5033035;28;20040;-75
2023/01/08 00:50:24;;;;;;;3.55;1.48;;;11.20;99.90;;;;;;5033737;28;20025;-75
2023/01/08 00:52:50;;;;;;;3.90;1.75;;;11.10;99.90;;;;;;5015847;28;20033;-75
2023/01/08 00:55:16;;;;;;;3.33;1.55;;;11.10;99.90;;;;;;5033569;28;20029;-75
2023/01/08 00:57:42;;;;;;;4.30;1.33;;;11.10;99.90;;;;;;5034033;28;20025;-74
2023/01/08 01:00:12;;;;;;;3.80;1.60;;;11.20;99.90;;;;;;5032689;28;20037;-74
2023/01/08 01:02:38;;;;;;;4.05;1.30;;;11.20;99.90;;;;;;5032300;28;20029;-74
2023/01/08 01:05:04;;;;;;;6.15;1.90;;;11.10;99.90;;;;;;5032276;28;20454;-75
2023/01/08 01:07:32;;;;;;;4.57;1.55;;;11.20;99.90;;;;;;5032384;28;20037;-74
2023/01/08 01:09:58;;;;;;;6.43;2.20;;;11.20;99.90;;;;;;5032260;28;20029;-74
2023/01/08 01:12:23;;;;;;;5.85;1.45;;;11.20;99.90;;;;;;5032550;28;20079;-74
2023/01/08 01:14:49;;;;;;;4.10;1.60;;;11.20;99.90;;;;;;4999204;28;20026;-74
2023/01/08 01:17:15;;;;;;;5.32;1.80;;;11.20;99.90;;;;;;5032487;28;20110;-74
2023/01/08 01:19:41;;;;;;;3.33;1.48;;;11.20;99.90;;;;;;5032005;28;20033;-74
2023/01/08 01:22:06;;;;;;;3.90;1.77;;;11.10;99.90;;;;;;4999631;28;20029;-74
2023/01/08 01:24:32;;;;;;;7.85;1.52;;;11.10;99.90;;;;;;5032213;28;20032;-74
2023/01/08 01:26:58;;;;;;;2.95;1.40;;;11.10;99.90;;;;;;5036210;28;20124;-74
2023/01/08 01:29:24;;;;;;;3.88;1.52;;;11.10;99.90;;;;;;5019875;28;20459;-74
2023/01/08 01:31:50;;;;;;;2.42;1.30;;;11.10;99.90;;;;;;5019581;28;20053;-74
2023/01/08 01:34:16;;;;;;;4.05;1.45;;;11.10;99.90;;;;;;5036406;28;20026;-74
2023/01/08 01:36:42;;;;;;;3.65;1.63;;;11.20;99.90;;;;;;5037312;28;20029;-74
2023/01/08 01:39:08;;;;;;;3.33;1.40;;;11.20;99.90;;;;;;5037419;28;20030;-74
2023/01/08 01:41:38;;;;;;;3.58;1.73;;;11.20;99.90;;;;;;5036072;28;20462;-74
2023/01/08 01:44:37;;;;;;;4.88;1.60;;;11.20;99.90;;;;;;5035946;28;20116;-74
2023/01/08 01:47:34;;;;;;;5.28;2.50;;;11.10;99.90;;;;;;5035946;28;20025;-75
2023/01/08 01:50:15;;;;;;;4.30;2.00;;;11.10;99.90;;;;;;5037017;28;20069;-74
2023/01/08 01:52:49;;;;;;;3.38;1.60;;;11.10;99.90;;;;;;5036471;28;20029;-74
2023/01/08 01:55:16;;;;;;;6.05;1.55;;;11.10;99.90;;;;;;5035852;28;20025;-74
2023/01/08 01:57:48;;;;;;;6.13;1.75;;;11.10;99.90;;;;;;5036751;28;20037;-74
2023/01/08 02:00:14;;;;;;;4.20;1.42;;;11.10;99.90;;;;;;5037169;28;20076;-74
2023/01/08 02:02:39;;;;;;;3.40;1.58;;;11.10;99.90;;;;;;5019143;28;20033;-74
2023/01/08 02:05:05;;;;;;;5.85;1.83;;;11.10;99.90;;;;;;5035731;28;20061;-74
2023/01/08 02:07:54;;;;;;;6.22;1.70;;;11.00;99.90;;;;;;5019673;28;20060;-73
2023/01/08 02:10:37;;;;;;;5.70;1.38;;;11.10;99.90;;;;;;5035480;28;20063;-74
2023/01/08 02:13:16;;;;;;;3.08;1.70;;;11.10;99.90;;;;;;5035779;28;20033;-74
2023/01/08 02:16:11;;;;;;;5.63;2.05;;;11.10;99.90;;;;;;5036772;28;20065;-74
2023/01/08 02:18:47;;;;;;;3.97;2.05;;;11.10;99.90;;;;;;5035889;28;20394;-74
2023/01/08 02:22:09;;;;;;;9.63;1.90;;;11.00;99.90;;;;;;5036665;28;20065;-74
2023/01/08 02:25:08;;;;;;;7.18;1.73;;;11.00;99.90;;;;;;5035577;28;20040;-74
2023/01/08 02:27:36;;;;;;;3.90;1.48;;;11.00;99.90;;;;;;5036452;28;20462;-74
2023/01/08 02:30:03;;;;;;;3.53;1.92;;;11.00;99.90;;;;;;5034993;28;20040;-73
2023/01/08 02:32:35;;;;;;;6.63;1.95;;;11.00;99.90;;;;;;5036870;28;20073;-74
2023/01/08 02:35:02;;;;;;;4.22;1.55;;;11.00;99.90;;;;;;5036445;28;20029;-73
2023/01/08 02:37:28;;;;;;;6.88;1.65;;;11.00;99.90;;;;;;5034738;28;20129;-74
2023/01/08 02:40:06;;;;;;;6.70;2.03;;;11.00;99.90;;;;;;5018562;28;20525;-74
2023/01/08 02:43:14;;;;;;;6.53;1.90;;;11.00;99.90;;;;;;5035698;28;20025;-74
2023/01/08 02:45:50;;;;;;;5.70;1.70;;;11.00;99.90;;;;;;5035423;28;20452;-74
2023/01/08 02:48:36;;;;;;;6.05;2.17;;;11.00;99.90;;;;;;5034829;28;20136;-74
2023/01/08 02:51:22;;;;;;;4.53;1.70;;;11.00;99.90;;;;;;5034722;28;20033;-74
2023/01/08 02:53:52;;;;;;;4.32;1.40;;;11.10;99.90;;;;;;5036037;28;20044;-74
2023/01/08 02:56:22;;;;;;;3.20;1.70;;;11.00;99.90;;;;;;5035421;28;20121;-79
2023/01/08 02:58:51;;;;;;;5.97;1.48;;;11.00;99.90;;;;;;5034058;28;20069;-80
2023/01/08 03:01:19;;;;;;;3.15;1.38;;;11.00;99.90;;;;;;5034618;28;20030;-80
2023/01/08 03:03:51;;;;;;;3.97;1.10;;;11.00;99.90;;;;;;5035535;28;20032;-80
2023/01/08 03:06:18;;;;;;;3.83;1.23;;;11.00;99.90;;;;;;5035738;28;20022;-79
2023/01/08 03:08:47;;;;;;;4.68;1.30;;;10.90;99.90;;;;;;5035048;28;20030;-80
2023/01/08 03:11:16;;;;;;;5.57;1.30;;;10.80;99.90;;;;;;5034350;28;20038;-79
2023/01/08 03:13:46;;;;;;;3.85;0.93;;;10.80;99.90;;;;;;5035299;28;20100;-79
2023/01/08 03:16:20;;;;;;;3.45;0.90;;;10.80;99.90;;;;;;5035803;28;20052;-79
2023/01/08 03:18:54;;;;;;;3.60;0.80;;;10.80;99.90;;;;;;5033879;28;20037;-79
2023/01/08 03:21:21;;;;;;;4.90;0.65;;;10.70;99.90;;;;;;5033787;28;20029;-79
2023/01/08 03:23:49;;;;;;;3.85;0.60;;;10.60;99.90;;;;;;5035026;28;20025;-79
2023/01/08 03:26:21;;;;;;;4.18;0.52;;;10.60;99.90;;;;;;5033813;28;20021;-80
2023/01/08 03:28:54;;;;;;;6.78;0.63;;;10.50;99.90;;;;;;5035272;28;20028;-79
2023/01/08 03:31:22;;;;;;;3.33;0.52;;;10.50;99.90;;;;;;5033925;28;20144;-79
2023/01/08 03:33:49;;;;;;;4.30;0.40;;;10.50;99.90;;;;;;5035115;28;20091;-79
2023/01/08 03:36:20;;;;;;;1.90;0.30;;;10.40;99.90;;;;;;5033548;28;20037;-79
2023/01/08 03:38:51;;;;;;;5.38;0.80;;;10.30;99.90;;;;;;5035141;28;20061;-79
2023/01/08 03:41:20;;;;;;;3.50;0.43;;;10.20;99.90;;;;;;5034830;28;20498;-78
2023/01/08 03:43:46;;;;;;;4.70;0.43;;;10.20;99.90;;;;;;5033671;28;20025;-78
2023/01/08 03:46:19;;;;;;;4.40;0.40;;;10.20;99.90;;;;;;5034423;28;20083;-79
2023/01/08 03:48:47;;;;;;;3.22;0.40;;;10.10;99.90;;;;;;5033160;28;20029;-79
2023/01/08 03:51:12;;;;;;;4.43;0.40;;;10.10;99.90;;;;;;5034318;28;20049;-79
2023/01/08 03:53:38;;;;;;;4.03;0.40;;;10.10;99.90;;;;;;5033934;28;20088;-78
2023/01/08 03:56:04;;;;;;;2.20;0.30;;;10.10;99.90;;;;;;5033604;28;20056;-79
2023/01/08 03:58:30;;;;;;;4.28;0.38;;;10.10;99.90;;;;;;5017366;28;20373;-79
2023/01/08 04:00:55;;;;;;;3.20;0.30;;;10.00;99.90;;;;;;5033558;28;20448;-79
2023/01/08 04:03:23;;;;;;;3.17;0.32;;;10.00;99.90;;;;;;5016607;28;20367;-79
2023/01/08 04:05:49;;;;;;;4.85;0.40;;;10.00;99.90;;;;;;5034311;28;20018;-79
2023/01/08 04:08:14;;;;;;;4.20;0.30;;;9.90;99.90;;;;;;5016525;28;20029;-79
2023/01/08 04:10:40;;;;;;;2.45;0.35;;;9.90;99.90;;;;;;5032818;28;20037;-79
2023/01/08 04:13:06;;;;;;;2.35;0.20;;;9.90;99.90;;;;;;5032926;28;20037;-79
2023/01/08 04:15:32;;;;;;;3.97;0.40;;;10.00;99.90;;;;;;5016409;28;20034;-79
2023/01/08 04:17:58;;;;;;;4.97;0.40;;;9.90;99.90;;;;;;5032773;28;20033;-79
2023/01/08 04:20:23;;;;;;;3.00;0.30;;;10.00;99.90;;;;;;5032834;28;20033;-79
2023/01/08 04:22:49;;;;;;;3.85;0.40;;;9.90;99.90;;;;;;5016713;28;20033;-79
2023/01/08 04:25:14;;;;;;;4.97;0.47;;;9.90;99.90;;;;;;5032458;28;20029;-79
2023/01/08 04:27:40;;;;;;;2.65;0.30;;;9.90;99.90;;;;;;5016660;28;20362;-79
2023/01/08 04:30:06;;;;;;;6.78;0.65;;;9.90;99.90;;;;;;5015904;28;20083;-80
2023/01/08 04:32:32;;;;;;;3.85;0.30;;;9.90;99.90;;;;;;5033380;28;20076;-79
2023/01/08 04:34:58;;;;;;;2.53;0.32;;;9.90;99.90;;;;;;5016346;28;20454;-79
2023/01/08 04:37:23;;;;;;;3.42;0.43;;;9.90;99.90;;;;;;5016548;28;20041;-79
2023/01/08 04:39:49;;;;;;;5.38;0.40;;;9.90;99.90;;;;;;5032991;28;20079;-79
2023/01/08 04:42:14;;;;;;;7.65;0.50;;;9.90;99.90;;;;;;5016029;28;20423;-79
2023/01/08 04:44:40;;;;;;;5.10;0.43;;;10.00;99.90;;;;;;5015879;28;20080;-79
2023/01/08 04:47:06;;;;;;;8.15;0.70;;;10.00;99.90;;;;;;5033849;28;20104;-79
2023/01/08 04:49:31;;;;;;;1.95;0.22;;;10.00;99.90;;;;;;5033904;28;20034;-79
2023/01/08 04:51:57;;;;;;;4.25;0.20;;;10.10;99.90;;;;;;5032074;28;20033;-79
2023/01/08 04:54:22;;;;;;;5.47;0.40;;;10.10;99.90;;;;;;5033887;28;20034;-79
2023/01/08 04:56:51;;;;;;;10.15;0.50;;;10.20;99.90;;;;;;5033829;28;20120;-80
2023/01/08 04:59:17;;;;;;;2.88;0.30;;;10.20;99.90;;;;;;5032280;28;20033;-80
2023/01/08 05:01:43;;;;;;;1.95;0.30;;;10.20;99.90;;;;;;5016129;28;20378;-80
2023/01/08 05:04:10;;;;;;;6.22;0.38;;;10.20;99.90;;;;;;5032432;28;20026;-79
2023/01/08 05:06:36;;;;;;;3.67;0.60;;;10.20;99.90;;;;;;5033767;28;20092;-80
2023/01/08 05:09:02;;;;;;;4.78;0.80;;;10.20;99.90;;;;;;5032640;28;20061;-79
2023/01/08 05:11:28;;;;;;;7.43;0.30;;;10.20;99.90;;;;;;5031899;28;20193;-80
2023/01/08 05:13:55;;;;;;;5.50;0.50;;;10.20;99.90;;;;;;5032334;28;20068;-80
2023/01/08 05:16:21;;;;;;;4.32;0.32;;;10.20;99.90;;;;;;5033644;28;20030;-79
2023/01/08 05:18:47;;;;;;;4.72;0.68;;;10.20;99.90;;;;;;5032365;28;20036;-79
2023/01/08 05:21:13;;;;;;;4.38;0.47;;;10.10;99.90;;;;;;4999523;28;20124;-79
2023/01/08 05:23:39;;;;;;;4.63;0.32;;;10.20;99.90;;;;;;5032682;28;20025;-79
2023/01/08 05:26:05;;;;;;;4.13;0.40;;;10.10;99.90;;;;;;5033452;28;20429;-79
2023/01/08 05:28:32;;;;;;;3.17;0.30;;;10.10;99.90;;;;;;5032497;28;20025;-79
2023/01/08 05:30:58;;;;;;;4.97;0.47;;;10.20;99.90;;;;;;5033017;28;20037;-79
2023/01/08 05:33:25;;;;;;;5.07;0.57;;;10.20;99.90;;;;;;5015927;28;20022;-79
2023/01/08 05:35:51;;;;;;;7.45;0.30;;;10.20;99.90;;;;;;5033532;28;20022;-79
2023/01/08 05:38:16;;;;;;;3.65;0.40;;;10.10;99.90;;;;;;5015896;28;20458;-78
2023/01/08 05:40:42;;;;;;;3.50;0.50;;;10.10;99.90;;;;;;5016227;28;20034;-79
2023/01/08 05:43:08;;;;;;;5.53;0.40;;;10.10;99.90;;;;;;5033647;28;20450;-79
2023/01/08 05:45:34;;;;;;;8.20;0.57;;;10.10;99.90;;;;;;5033342;28;20029;-79
2023/01/08 05:48:03;;;;;;;5.13;0.55;;;10.10;99.90;;;;;;5031841;28;20029;-79
2023/01/08 05:50:28;;;;;;;7.20;0.50;;;10.10;99.90;;;;;;5031768;28;20037;-79
2023/01/08 05:52:54;;;;;;;5.25;0.50;;;10.10;99.90;;;;;;5031808;28;20165;-79
2023/01/08 05:55:19;;;;;;;5.03;0.70;;;10.00;99.90;;;;;;5033575;28;20378;-79
2023/01/08 05:57:45;;;;;;;4.22;0.60;;;10.00;99.90;;;;;;5015824;28;20037;-79
2023/01/08 06:00:12;;;;;;;2.95;0.40;;;10.00;99.90;;;;;;5032207;28;20033;-79
2023/01/08 06:02:37;;;;;;;3.35;0.40;;;10.00;99.90;;;;;;5033402;28;20053;-79
2023/01/08 06:05:04;;;;;;;2.53;0.47;;;10.00;99.90;;;;;;5033457;28;20107;-79
2023/01/08 06:07:29;;;;;;;3.15;0.50;;;10.00;99.90;;;;;;5031841;28;20128;-79
2023/01/08 06:09:55;;;;;;;2.70;0.30;;;10.00;99.90;;;;;;5032628;28;20120;-79
2023/01/08 06:12:21;;;;;;;4.00;0.40;;;10.10;99.90;;;;;;5017323;28;20493;-78
2023/01/08 06:14:46;;;;;;;4.05;0.50;;;10.00;99.90;;;;;;5019842;28;20040;-79
2023/01/08 06:17:13;;;;;;;4.93;0.45;;;10.00;99.90;;;;;;5018969;28;20034;-78
2023/01/08 06:19:39;;;;;;;2.85;1.27;;;10.00;99.90;;;;;;5003470;28;20037;-79
2023/01/08 06:22:05;;;;;;;3.30;0.40;;;10.10;99.90;;;;;;5035123;28;20078;-78
2023/01/08 06:24:31;;;;;;;3.33;0.40;;;10.10;99.90;;;;;;5018821;28;20079;-78
2023/01/08 06:26:56;;;;;;;3.78;0.40;;;10.10;99.90;;;;;;5019352;28;20030;-78
2023/01/08 06:29:22;;;;;;;4.35;0.40;;;10.10;99.90;;;;;;5019226;28;20365;-78
2023/01/08 06:31:48;;;;;;;4.95;0.52;;;10.10;99.90;;;;;;5035225;28;20095;-77
2023/01/08 06:34:14;;;;;;;1.85;0.28;;;10.10;99.90;;;;;;5035397;28;20112;-78
2023/01/08 06:36:39;;;;;;;4.82;0.30;;;10.00;99.90;;;;;;5036408;28;20108;-78
2023/01/08 06:39:06;;;;;;;5.63;0.40;;;10.00;99.90;;;;;;5018779;28;20493;-78
2023/01/08 06:41:32;;;;;;;2.50;0.40;;;10.00;99.90;;;;;;5035468;28;20029;-78
2023/01/08 06:43:58;;;;;;;2.75;0.20;;;10.00;99.90;;;;;;5019143;28;20036;-78
2023/01/08 06:46:23;;;;;;;3.65;0.35;;;10.00;99.90;;;;;;5034774;28;20027;-78
2023/01/08 06:48:49;;;;;;;2.90;0.30;;;9.90;99.90;;;;;;5036093;28;20037;-79
2023/01/08 06:51:15;;;;;;;3.22;0.30;;;9.90;99.90;;;;;;5001974;28;20088;-78
2023/01/08 06:53:40;;;;;;;4.45;0.30;;;9.90;99.90;;;;;;5036324;28;20025;-78
2023/01/08 06:56:08;;;;;;;3.78;0.40;;;9.90;99.90;;;;;;5035314;28;20030;-78
2023/01/08 06:58:34;;;;;;;1.50;0.40;;;9.80;99.90;;;;;;5034731;28;20029;-78
2023/01/08 07:01:00;;;;;;;2.38;0.28;;;9.80;99.90;;;;;;5034629;28;20121;-80
2023/01/08 07:03:25;;;;;;;1.65;0.10;;;9.80;99.90;;;;;;5035312;28;20112;-79
2023/01/08 07:05:51;;;;;;;1.80;0.50;;;9.80;99.90;;;;;;5017508;28;20030;-79
2023/01/08 07:08:18;;;;;;;2.72;0.40;;;9.70;99.90;;;;;;5033938;28;20060;-79
2023/01/08 07:10:43;;;;;;;4.28;0.40;;;9.70;99.90;;;;;;5033567;28;20046;-78
2023/01/08 07:13:11;;;;;;;4.18;0.50;;;9.70;99.90;;;;;;5017350;28;20112;-78
2023/01/08 07:15:38;;;;;;;7.32;0.60;;;9.60;99.90;;;;;;5035097;28;20049;-79
2023/01/08 07:18:08;;;;;;;3.03;0.40;;;9.60;99.90;;;;;;5033894;28;20064;-80
2023/01/08 07:20:34;;;;;;;3.28;0.40;;;9.50;99.90;;;;;;5035272;28;20044;-79
2023/01/08 07:23:04;;;;;;;8.45;0.32;;;9.50;99.90;;;;;;5034226;28;20032;-79
2023/01/08 07:25:30;;;;;;;7.82;0.63;;;9.40;99.90;;;;;;5033343;28;20052;-79
2023/01/08 07:27:57;;;;;;;4.78;0.35;;;9.40;99.90;;;;;;5033142;28;20485;-79
2023/01/08 07:30:23;;;;;;;5.22;0.60;;;9.40;99.90;;;;;;5016919;28;20048;-79
2023/01/08 07:32:48;;;;;;;9.05;0.95;;;9.30;99.90;;;;;;5035008;28;20089;-79
2023/01/08 07:35:14;;;;;;;4.63;0.52;;;9.40;99.90;;;;;;5035281;28;20064;-79
2023/01/08 07:37:41;;;;;;;4.85;0.40;;;9.40;99.90;;;;;;5033334;28;20497;-78
2023/01/08 07:40:08;;;;;;;4.43;0.40;;;9.30;99.90;;;;;;5034549;28;20037;-78
2023/01/08 07:42:33;;;;;;;8.52;0.40;;;9.40;99.90;;;;;;5033567;28;20029;-78
2023/01/08 07:44:59;;;;;;;6.85;0.52;;;9.40;99.90;;;;;;5033252;28;20363;-78
2023/01/08 07:47:24;;;;;;;2.72;0.60;;;9.30;99.90;;;;;;5016727;28;20108;-78
2023/01/08 07:49:50;;;;;;;5.70;1.08;;;9.40;99.90;;;;;;5016828;28;20355;-79
2023/01/08 07:52:16;;;;;;;6.60;0.55;;;9.30;99.90;;;;;;5033178;28;20432;-79
2023/01/08 07:54:41;;;;;;;5.60;0.50;;;9.30;99.90;;;;;;5033123;28;20029;-80
2023/01/08 07:57:07;;;;;;;5.60;0.40;;;9.30;99.90;;;;;;5034000;28;20038;-79
2023/01/08 07:59:33;;;;;;;6.07;0.60;;;9.30;99.90;;;;;;5000704;28;20086;-79
2023/01/08 08:01:58;;;;;;;4.18;0.63;;;9.30;99.90;;;;;;5016416;28;20029;-79
2023/01/08 08:04:24;;;;;;;5.38;0.57;;;9.30;99.90;;;;;;5032879;28;20033;-79
2023/01/08 08:06:50;;;;;;;9.48;0.80;;;9.40;99.90;;;;;;5033086;28;20102;-79
2023/01/08 08:09:16;;;;;;;8.65;0.60;;;9.30;99.90;;;;;;5017089;28;20040;-77
2023/01/08 08:11:41;;;;;;;15.77;0.95;;;9.40;99.90;;;;;;5016070;28;20124;-75
2023/01/08 08:14:07;;;;;;;6.63;0.60;;;9.30;99.90;;;;;;5016954;28;20032;-78
2023/01/08 08:16:33;;;;;;;8.25;1.02;;;9.30;99.90;;;;;;5032985;28;20111;-76
2023/01/08 08:18:59;;;;;;;11.55;1.00;;;9.30;99.90;;;;;;5016245;28;20111;-77
2023/01/08 08:21:25;;;;;;;8.30;0.90;;;9.30;99.90;;;;;;5032908;28;20252;-77
2023/01/08 08:23:50;;;;;;;8.65;0.80;;;9.30;99.90;;;;;;5033227;28;20076;-76
2023/01/08 08:26:16;;;;;;;6.72;0.85;;;9.30;99.90;;;;;;5032544;28;20030;-77
2023/01/08 08:28:42;;;;;;;6.95;0.80;;;9.30;99.90;;;;;;5016322;28;20036;-78
2023/01/08 08:31:07;;;;;;;11.35;0.90;;;9.30;99.90;;;;;;5033731;28;20131;-77
2023/01/08 08:33:33;;;;;;;6.85;0.82;;;9.30;99.90;;;;;;5033066;28;20083;-77
2023/01/08 08:35:59;;;;;;;6.32;0.93;;;9.20;99.90;;;;;;5031922;28;20482;-76
2023/01/08 08:38:25;;;;;;;5.95;0.70;;;9.20;99.90;;;;;;5033765;28;20033;-79
2023/01/08 08:40:51;;;;;;;7.63;1.10;;;9.20;99.90;;;;;;5032435;28;20041;-80
2023/01/08 08:43:17;;;;;;;7.93;1.02;;;9.30;99.90;;;;;;5033625;28;20426;-79
2023/01/08 08:45:43;;;;;;;4.97;0.60;;;9.30;99.90;;;;;;5032368;28;20115;-75
2023/01/08 08:48:10;;;;;;;6.93;0.85;;;9.30;99.90;;;;;;5033801;28;20478;-75
2023/01/08 08:50:36;;;;;;;10.32;1.50;;;9.40;99.90;;;;;;5033541;28;20034;-75
2023/01/08 08:53:04;;;;;;;5.90;0.57;;;9.40;99.90;;;;;;5031934;28;20061;-75
2023/01/08 08:55:30;;;;;;;8.23;0.50;;;9.30;99.90;;;;;;5032268;28;20036;-75
2023/01/08 08:58:05;;;;;;;4.57;0.45;;;9.30;99.90;;;;;;5033668;28;20532;-75
2023/01/08 09:00:30;;;;;;;10.25;0.80;;;9.40;99.90;;;;;;5033660;28;20026;-74
2023/01/08 09:02:56;;;;;;;10.88;0.75;;;9.50;99.90;;;;;;5016208;28;20039;-76
2023/01/08 09:05:22;;;;;;;7.57;0.85;;;9.50;99.90;;;;;;5015652;28;20087;-75
2023/01/08 09:07:47;;;;;;;9.35;0.80;;;9.40;99.90;;;;;;5032188;28;20030;-76
2023/01/08 09:10:13;;;;;;;6.43;0.73;;;9.50;99.90;;;;;;5031850;28;20041;-77
2023/01/08 09:12:39;;;;;;;8.63;1.10;;;9.60;99.90;;;;;;5031805;28;20060;-75
2023/01/08 09:15:05;;;;;;;11.57;3.60;;;9.60;99.90;;;;;;5015590;28;20030;-76
2023/01/08 09:17:30;;;;;;;7.28;2.38;;;9.70;99.90;;;;;;5015682;28;20030;-76
2023/01/08 09:19:56;;;;;;;10.27;1.13;;;9.70;99.90;;;;;;5032038;28;20033;-75
2023/01/08 09:22:21;;;;;;;8.80;0.70;;;9.80;99.90;;;;;;5032990;28;20536;-75
2023/01/08 09:24:47;;;;;;;8.43;0.93;;;9.80;99.90;;;;;;5031968;28;20159;-76
2023/01/08 09:27:13;;;;;;;9.00;0.55;;;9.90;99.90;;;;;;5033007;28;20033;-76
2023/01/08 09:29:39;;;;;;;9.18;0.90;;;9.90;99.90;;;;;;5032516;28;20087;-75
2023/01/08 09:32:06;;;;;;;7.90;0.90;;;9.90;99.90;;;;;;5031702;28;20132;-74
2023/01/08 09:34:32;;;;;;;6.97;0.77;;;9.90;99.90;;;;;;5033668;28;20033;-75
2023/01/08 09:36:58;;;;;;;9.32;0.77;;;10.00;99.90;;;;;;5015277;28;20037;-75
2023/01/08 09:39:23;;;;;;;7.07;0.70;;;10.00;99.90;;;;;;5033374;28;20071;-75
2023/01/08 09:41:51;;;;;;;9.50;0.90;;;10.00;99.90;;;;;;5032971;28;20033;-75
2023/01/08 09:44:21;;;;;;;4.63;1.00;;;10.10;99.90;;;;;;5031570;28;20462;-75
2023/01/08 09:46:48;;;;;;;9.27;0.98;;;10.10;99.90;;;;;;5033261;28;20109;-76
2023/01/08 09:49:24;;;;;;;5.63;1.00;;;10.10;99.90;;;;;;5036469;28;20033;-77
2023/01/08 09:51:50;;;;;;;6.45;0.65;;;10.20;99.90;;;;;;5036178;28;20068;-77
2023/01/08 09:54:16;;;;;;;8.60;1.00;;;10.10;99.90;;;;;;5035655;28;20408;-75
2023/01/08 09:56:43;;;;;;;11.65;1.00;;;10.10;99.90;;;;;;5035562;28;20025;-76
2023/01/08 09:59:13;;;;;;;5.68;0.73;;;10.10;99.90;;;;;;5035370;28;20040;-75
2023/01/08 10:01:40;;;;;;;10.90;0.95;;;10.10;99.90;;;;;;5036594;28;20071;-76
2023/01/08 10:04:16;;;;;;;6.72;1.23;;;10.00;99.90;;;;;;5036382;28;20029;-77
2023/01/08 10:06:47;;;;;;;8.85;1.80;;;10.00;99.90;;;;;;5036184;28;20029;-77
2023/01/08 10:09:13;;;;;;;9.27;1.48;;;9.90;99.90;;;;;;5035882;28;20049;-77
2023/01/08 10:11:43;;;;;;;9.65;1.45;;;9.90;99.90;;;;;;5018890;28;20480;-78
2023/01/08 10:14:31;;;;;;;9.63;1.30;;;9.90;99.90;;;;;;5036265;28;20021;-79
2023/01/08 10:17:04;;;;;;;5.95;0.93;;;10.00;99.90;;;;;;5035024;28;20025;-78
2023/01/08 10:19:29;;;;;;;16.02;1.23;;;10.10;99.90;;;;;;5036525;28;20022;-79
2023/01/08 10:21:56;;;;;;;8.18;0.80;;;10.20;99.90;;;;;;5034959;28;20547;-78
2023/01/08 10:24:38;;;;;;;10.85;1.15;;;10.30;99.90;;;;;;5018391;28;20042;-77
2023/01/08 10:27:12;;;;;;;5.70;0.60;;;10.40;99.90;;;;;;5036121;28;20026;-78
2023/01/08 10:29:40;;;;;;;9.18;0.90;;;10.50;99.90;;;;;;5036566;28;20078;-78
2023/01/08 10:32:37;;;;;;;7.30;0.68;;;10.50;99.90;;;;;;5036022;28;20049;-78
2023/01/08 10:35:06;;;;;;;9.23;0.88;;;10.60;99.90;;;;;;5036193;28;20057;-78
2023/01/08 10:37:36;;;;;;;11.07;1.08;;;10.70;99.90;;;;;;5035997;28;20459;-78
2023/01/08 10:40:30;;;;;;;7.57;1.00;;;10.80;99.90;;;;;;5034774;28;20040;-76
2023/01/08 10:43:13;;;;;;;5.15;1.00;;;10.90;99.90;;;;;;5036043;28;20102;-82
2023/01/08 10:45:40;;;;;;;;;;;10.90;99.90;;;;;;5035770;28;20120;-79
2023/01/08 10:48:14;;;;;;;12.88;1.40;;;11.00;99.90;;;;;;5034599;28;19920;-80
2023/01/08 10:50:39;;;;;;;8.43;1.08;;;11.20;99.90;;;;;;5036289;28;20037;-81
2023/01/08 10:53:20;;;;;;;6.03;0.98;;;11.20;99.90;;;;;;5035969;28;20378;-82
2023/01/08 10:56:03;;;;;;;6.15;1.00;;;11.40;99.90;;;;;;5034663;28;20520;-80
2023/01/08 10:58:39;;;;;;;7.32;0.60;;;11.40;99.90;;;;;;5035102;28;20025;-80
2023/01/08 11:01:18;;;;;;;6.25;0.93;;;11.50;99.90;;;;;;5035877;28;20029;-82
2023/01/08 11:03:50;;;;;;;8.43;1.30;;;11.60;99.90;;;;;;5034459;28;20064;-83
2023/01/08 11:06:26;;;;;;;7.38;1.13;;;11.60;99.90;;;;;;5034049;28;20033;-81
2023/01/08 11:09:01;;;;;;;3.65;0.80;;;11.60;99.90;;;;;;5035827;28;20028;-82
2023/01/08 11:11:35;;;;;;;6.55;0.98;;;11.50;99.90;;;;;;5035420;28;20037;-79
2023/01/08 11:14:05;;;;;;;8.48;0.90;;;11.50;99.90;;;;;;5034255;28;20068;-79
2023/01/08 11:16:39;;;;;;;7.97;0.93;;;11.50;99.90;;;;;;5035329;28;20528;-81
2023/01/08 11:19:24;;;;;;;4.82;0.60;;;11.50;99.90;;;;;;5035790;28;20078;-81
2023/01/08 11:22:07;;;;;;;8.38;1.30;;;11.60;99.90;;;;;;5035444;28;20029;-86
2023/01/08 11:24:41;;;;;;;7.28;0.73;;;11.50;99.90;;;;;;5034913;28;20037;-81
2023/01/08 11:27:28;;;;;;;8.43;0.70;;;11.60;99.90;;;;;;5034370;28;20532;-83
2023/01/08 11:30:03;;;;;;;3.42;0.43;;;11.60;99.90;;;;;;5035837;28;20037;-85
2023/01/08 11:32:50;;;;;;;5.10;0.68;;;11.70;99.90;;;;;;5034561;28;20049;-81
2023/01/08 11:35:28;;;;;;;6.75;0.85;;;11.70;99.90;;;;;;5037879;28;20029;-84
2023/01/08 11:38:00;;;;;;;5.22;0.63;;;11.70;99.90;;;;;;5036794;28;20116;-82
2023/01/08 11:40:50;;;;;;;5.30;0.93;;;11.70;99.90;;;;;;5020964;28;20382;-82
2023/01/08 11:43:27;;;;;;;9.32;1.00;;;11.60;99.90;;;;;;5043239;28;20087;-82
2023/01/08 11:46:23;;;;;;;6.57;0.60;;;11.60;99.90;;;;;;5040180;28;20025;-82
2023/01/08 11:48:57;;;;;;;4.88;0.70;;;11.70;99.90;;;;;;5037712;28;20025;-83
2023/01/08 11:51:38;;;;;;;4.18;0.80;;;11.60;99.90;;;;;;5033589;28;20120;-82
2023/01/08 11:54:32;;;;;;;3.60;0.45;;;11.60;99.90;;;;;;5034301;28;20025;-83
2023/01/08 11:57:15;;;;;;;4.13;0.77;;;11.60;99.90;;;;;;5034826;28;20486;-83
2023/01/08 12:00:29;;;;;;;5.13;0.57;;;11.50;99.90;;;;;;5033342;28;20079;-82
2023/01/08 12:02:58;;;;;;;4.43;0.40;;;11.60;99.90;;;;;;5034641;28;20040;-82
2023/01/08 12:05:45;;;;;;;3.17;0.38;;;11.50;99.90;;;;;;5033483;28;20052;-83
2023/01/08 12:08:28;;;;;;;4.15;0.40;;;11.50;99.90;;;;;;5033742;28;20021;-83
2023/01/08 12:10:56;;;;;;;3.03;0.45;;;11.60;99.90;;;;;;5032255;28;20041;-83
2023/01/08 12:13:53;;;;;;;2.22;0.25;;;11.70;99.90;;;;;;5034343;28;20040;-83
2023/01/08 12:16:52;;;;;;;1.60;0.20;;;11.70;99.90;;;;;;5034004;28;20052;-82
2023/01/08 12:19:41;;;;;;;3.00;0.30;;;11.80;99.90;;;;;;5033435;28;20034;-82
2023/01/08 12:22:31;;;;;;;3.95;0.50;;;11.90;99.90;;;;;;5034301;28;20017;-83
2023/01/08 12:25:20;;;;;;;2.55;0.20;;;11.80;99.90;;;;;;5033198;28;20026;-83
2023/01/08 12:27:46;;;;;;;2.47;0.10;;;11.80;99.90;;;;;;5033533;28;20025;-83
2023/01/08 12:30:27;;;;;;;1.55;0.10;;;11.80;99.90;;;;;;5033935;28;20044;-82
2023/01/08 12:33:03;;;;;;;1.77;0.10;;;11.90;99.90;;;;;;5032422;28;20053;-82
2023/01/08 12:35:39;;;;;;;1.80;0.20;;;11.90;99.90;;;;;;5032624;28;20029;-83
2023/01/08 12:38:20;;;;;;;0.63;0.10;;;11.80;99.90;;;;;;5034256;28;20100;-82
2023/01/08 12:40:56;;;;;;;1.58;0.10;;;11.90;99.80;;;;;;5034265;28;20033;-82
2023/01/08 12:43:27;;;;;;;1.88;0.22;;;12.00;99.90;;;;;;5031974;28;20116;-81
2023/01/08 12:45:56;;;;;;;2.20;0.20;;;12.00;99.70;;;;;;5033653;28;20031;-83
2023/01/08 12:48:25;;;;;;;2.22;0.20;;;12.10;99.70;;;;;;5033681;28;20030;-83
2023/01/08 12:51:34;;;;;;;2.55;0.10;;;12.10;99.60;;;;;;5032316;28;20040;-83
2023/01/08 12:54:03;;;;;;;1.02;0.10;;;12.20;99.30;;;;;;5032618;28;20115;-82
2023/01/08 12:56:54;;;;;;;0.98;0.20;;;12.20;99.10;;;;;;5033533;28;20026;-82
2023/01/08 12:59:45;;;;;;;0.75;0.20;;;12.10;98.90;;;;;;5033910;28;20520;-82
2023/01/08 13:02:35;;;;;;;1.50;0.10;;;11.90;99.30;;;;;;5033813;28;20121;-82
2023/01/08 13:05:35;;;;;;;2.05;0.13;;;11.90;99.70;;;;;;5031871;28;20049;-82
2023/01/08 13:08:23;;;;;;;2.47;0.10;;;12.00;99.90;;;;;;5021080;28;20033;-82